地図

経路データ

SID SEASON NUMBER BASIN SUBBASIN NAME ISO_TIME NATURE LAT LON WMO_WIND WMO_PRES WMO_AGENCY TRACK_TYPE DIST2LAND LANDFALL IFLAG USA_AGENCY USA_ATCF_ID USA_LAT USA_LON USA_RECORD USA_STATUS USA_WIND USA_PRES USA_SSHS USA_R34_NE USA_R34_SE USA_R34_SW USA_R34_NW USA_R50_NE USA_R50_SE USA_R50_SW USA_R50_NW USA_R64_NE USA_R64_SE USA_R64_SW USA_R64_NW USA_POCI USA_ROCI USA_RMW USA_EYE TOKYO_LAT TOKYO_LON TOKYO_GRADE TOKYO_WIND TOKYO_PRES TOKYO_R50_DIR TOKYO_R50_LONG TOKYO_R50_SHORT TOKYO_R30_DIR TOKYO_R30_LONG TOKYO_R30_SHORT TOKYO_LAND CMA_LAT CMA_LON CMA_CAT CMA_WIND CMA_PRES HKO_LAT HKO_LON HKO_CAT HKO_WIND HKO_PRES NEWDELHI_LAT NEWDELHI_LON NEWDELHI_GRADE NEWDELHI_WIND NEWDELHI_PRES NEWDELHI_CI NEWDELHI_DP NEWDELHI_POCI REUNION_LAT REUNION_LON REUNION_TYPE REUNION_WIND REUNION_PRES REUNION_TNUM REUNION_CI REUNION_RMW REUNION_R34_NE REUNION_R34_SE REUNION_R34_SW REUNION_R34_NW REUNION_R50_NE REUNION_R50_SE REUNION_R50_SW REUNION_R50_NW REUNION_R64_NE REUNION_R64_SE REUNION_R64_SW REUNION_R64_NW BOM_LAT BOM_LON BOM_TYPE BOM_WIND BOM_PRES BOM_TNUM BOM_CI BOM_RMW BOM_R34_NE BOM_R34_SE BOM_R34_SW BOM_R34_NW BOM_R50_NE BOM_R50_SE BOM_R50_SW BOM_R50_NW BOM_R64_NE BOM_R64_SE BOM_R64_SW BOM_R64_NW BOM_ROCI BOM_POCI BOM_EYE BOM_POS_METHOD BOM_PRES_METHOD NADI_LAT NADI_LON NADI_CAT NADI_WIND NADI_PRES WELLINGTON_LAT WELLINGTON_LON WELLINGTON_WIND WELLINGTON_PRES DS824_LAT DS824_LON DS824_STAGE DS824_WIND DS824_PRES TD9636_LAT TD9636_LON TD9636_STAGE TD9636_WIND TD9636_PRES TD9635_LAT TD9635_LON TD9635_WIND TD9635_PRES TD9635_ROCI NEUMANN_LAT NEUMANN_LON NEUMANN_CLASS NEUMANN_WIND NEUMANN_PRES MLC_LAT MLC_LON MLC_CLASS MLC_WIND MLC_PRES USA_GUST BOM_GUST BOM_GUST_PER REUNION_GUST REUNION_GUST_PER USA_SEAHGT USA_SEARAD_NE USA_SEARAD_SE USA_SEARAD_SW USA_SEARAD_NW STORM_SPEED STORM_DIR
2020254N11343 2020 69 NA NA TEDDY 2020-09-10 06:00:00 NR 10.7000 -16.7000 PROVISIONAL 135 135 O_____________ nhc_working_bt AL202020 10.7000 -16.7000 DB 20 1009 -3 1011 180 120 11 270
2020254N11343 2020 69 NA NA TEDDY 2020-09-10 09:00:00 NR 10.7002 -17.2500 PROVISIONAL 172 180 P_____________ AL202020 10.7002 -17.2500 DB 20 1009 -3 1011 180 120 11 270
2020254N11343 2020 69 NA NA TEDDY 2020-09-10 12:00:00 NR 10.7000 -17.8000 PROVISIONAL 218 218 O_____________ nhc_working_bt AL202020 10.7000 -17.8000 DB 20 1009 -3 1011 180 120 11 270
2020254N11343 2020 69 NA NA TEDDY 2020-09-10 15:00:00 NR 10.6999 -18.3500 PROVISIONAL 250 258 P_____________ AL202020 10.6999 -18.3500 DB 20 1009 -3 1011 180 120 11 270
2020254N11343 2020 69 NA NA TEDDY 2020-09-10 18:00:00 NR 10.7000 -18.9000 PROVISIONAL 297 297 O_____________ nhc_working_bt AL202020 10.7000 -18.9000 DB 20 1009 -3 1011 180 120 11 270
2020254N11343 2020 69 NA NA TEDDY 2020-09-10 21:00:00 NR 10.6997 -19.4200 PROVISIONAL 341 341 P_____________ AL202020 10.6997 -19.4200 DB 20 1009 -3 1011 180 120 11 270
2020254N11343 2020 69 NA NA TEDDY 2020-09-11 00:00:00 NR 10.7000 -20.0000 PROVISIONAL 397 397 O_____________ nhc_working_bt AL202020 10.7000 -20.0000 DB 20 1009 -3 1011 180 120 11 269
2020254N11343 2020 69 NA NA TEDDY 2020-09-11 03:00:00 NR 10.6759 -20.5706 PROVISIONAL 455 455 P_____________ AL202020 10.6759 -20.5706 DB 20 1009 -3 1011 180 120 15 270
2020254N11343 2020 69 NA NA TEDDY 2020-09-11 06:00:00 NR 10.7000 -21.5000 PROVISIONAL 546 546 O_____________ nhc_working_bt AL202020 10.7000 -21.5000 DB 20 1009 -3 1011 180 120 26 273
2020254N11343 2020 69 NA NA TEDDY 2020-09-11 09:00:00 NR 10.8299 -23.1897 PROVISIONAL 720 720 P_____________ AL202020 10.8299 -23.1897 DB 22 1008 -3 1011 180 120 35 275
2020254N11343 2020 69 NA NA TEDDY 2020-09-11 12:00:00 NR 11.0000 -25.0000 PROVISIONAL 907 907 O_____________ nhc_working_bt AL202020 11.0000 -25.0000 DB 25 1008 -3 1011 180 120 30 276
2020254N11343 2020 69 NA NA TEDDY 2020-09-11 15:00:00 NR 11.1632 -26.2249 PROVISIONAL 1021 1021 P_____________ AL202020 11.1632 -26.2249 DB 25 1008 -3 1011 180 120 23 278
2020254N11343 2020 69 NA NA TEDDY 2020-09-11 18:00:00 NR 11.3000 -27.3000 PROVISIONAL 1128 1128 O_____________ nhc_working_bt AL202020 11.3000 -27.3000 DB 25 1008 -3 1011 180 120 35 24 275
2020254N11343 2020 69 NA NA TEDDY 2020-09-11 21:00:00 NR 11.3730 -28.6175 PROVISIONAL 1258 1258 P_____________ AL202020 11.3730 -28.6175 DB 25 1008 -3 1011 180 120 25 272
2020254N11343 2020 69 NA NA TEDDY 2020-09-12 00:00:00 NR 11.4000 -29.8000 PROVISIONAL 1383 1383 O_____________ nhc_working_bt AL202020 11.4000 -29.8000 DB 25 1008 -3 1011 180 120 35 19 271
2020254N11343 2020 69 NA NA TEDDY 2020-09-12 03:00:00 NR 11.4142 -30.5974 PROVISIONAL 1466 1466 P_____________ AL202020 11.4142 -30.5974 DB 25 1007 -3 1010 180 120 14 270
2020254N11343 2020 69 NA NA TEDDY 2020-09-12 06:00:00 NR 11.4000 -31.2000 PROVISIONAL 1529 1529 O_____________ nhc_working_bt AL202020 11.4000 -31.2000 DB 25 1007 -3 1009 180 120 35 12 267
2020254N11343 2020 69 NA NA TEDDY 2020-09-12 09:00:00 NR 11.3424 -31.8376 PROVISIONAL 1595 1595 P_____________ AL202020 11.3424 -31.8376 DB 25 1007 -3 1009 180 120 12 265
2020254N11343 2020 69 NA NA TEDDY 2020-09-12 12:00:00 DS 11.3000 -32.4000 PROVISIONAL 1659 1659 O_____________ nhc_working_bt AL202020 11.3000 -32.4000 LO 25 1007 -3 1009 180 120 35 10 269
2020254N11343 2020 69 NA NA TEDDY 2020-09-12 15:00:00 DS 11.3273 -32.8725 PROVISIONAL 1711 1711 P_____________ AL202020 11.3273 -32.8725 LO 27 1006 -3 1009 180 115 9 272
2020254N11343 2020 69 NA NA TEDDY 2020-09-12 18:00:00 TS 11.3333 -33.2667 PROVISIONAL 1746 1738 O_____________ nhc_working_bt AL202020 11.4000 -33.3000 TD 30 1005 -1 1009 180 110 40 9 279
2020254N11343 2020 69 NA NA TEDDY 2020-09-12 21:00:00 TS 11.4569 -33.7287 PROVISIONAL 1749 1736 P_____________ AL202020 11.4849 -33.7500 TD 30 1005 -1 1009 180 110 10 288
2020254N11343 2020 69 NA NA TEDDY 2020-09-13 00:00:00 TS 11.6300 -34.2000 PROVISIONAL 1738 1737 O_____________ nhc_working_bt AL202020 11.6000 -34.2000 TD 30 1005 -1 1009 180 110 40 10 292
2020254N11343 2020 69 NA NA TEDDY 2020-09-13 03:00:00 TS 11.8149 -34.6550 PROVISIONAL 1741 1741 P_____________ AL202020 11.7424 -34.6350 TD 30 1005 -1 1009 180 105 9 291
2020254N11343 2020 69 NA NA TEDDY 2020-09-13 06:00:00 TS 11.9667 -35.1000 PROVISIONAL 1748 1735 O_____________ nhc_working_bt AL202020 11.9000 -35.1000 TD 30 1005 -1 1009 180 100 40 9 285
2020254N11343 2020 69 NA NA TEDDY 2020-09-13 09:00:00 TS 12.0448 -35.5327 PROVISIONAL 1735 1732 P_____________ AL202020 12.0424 -35.6276 TD 30 1005 -1 1010 195 100 9 281
2020254N11343 2020 69 NA NA TEDDY 2020-09-13 12:00:00 TS 12.1333 -36.0000 PROVISIONAL 1732 1729 O_____________ nhc_working_bt AL202020 12.2000 -36.2000 TD 30 1006 -1 1011 210 100 40 12 75 75 10 286
2020254N11343 2020 69 NA NA TEDDY 2020-09-13 15:00:00 TS 12.3208 -36.5391 PROVISIONAL 1741 1739 P_____________ AL202020 12.3924 -36.7925 TD 30 1006 -1 1011 225 100 12 67 67 12 290
2020254N11343 2020 69 NA NA TEDDY 2020-09-13 18:00:00 TS 12.5333 -37.1333 PROVISIONAL 1751 1749 O_____________ nhc_working_bt AL202020 12.6000 -37.4000 TD 30 1006 -1 1011 240 100 40 12 60 60 12 288
2020254N11343 2020 69 NA NA TEDDY 2020-09-13 21:00:00 TS 12.7047 -37.7318 PROVISIONAL 1763 1714 P_____________ AL202020 12.8295 -37.9549 TD 30 1006 -1 1011 240 100 12 60 13 285
2020254N11343 2020 69 NA NA TEDDY 2020-09-14 00:00:00 TS 12.8667 -38.4000 PROVISIONAL 1714 1664 O_____________ nhc_working_bt AL202020 13.0000 -38.6000 TD 30 1006 -1 1011 240 100 40 12 60 60 14 286
2020254N11343 2020 69 NA NA TEDDY 2020-09-14 03:00:00 TS 13.0880 -39.1446 PROVISIONAL 1664 1600 P_____________ AL202020 13.0451 -39.4551 TD 32 1005 -1 1011 240 70 16 282
2020254N11343 2020 69 NA NA TEDDY 2020-09-14 06:00:00 TS 13.2000 -40.0000 PROVISIONAL 1592 1493 O_____________ nhc_working_bt AL202020 13.0000 -40.4000 TS 35 1004 0 40 40 1011 240 40 18 268
2020254N11343 2020 69 NA NA TEDDY 2020-09-14 09:00:00 TS 13.0179 -41.0160 PROVISIONAL 1493 1397 P_____________ AL202020 12.8926 -41.3453 TS 35 1004 0 40 40 1011 240 40 20 258
2020254N11343 2020 69 NA NA TEDDY 2020-09-14 12:00:00 TS 12.8000 -42.0000 PROVISIONAL 1397 1341 O_____________ nhc_working_bt AL202020 12.8000 -42.2000 TS 35 1004 0 40 40 1011 240 40 45 17 263
2020254N11343 2020 69 NA NA TEDDY 2020-09-14 15:00:00 TS 12.8121 -42.7671 PROVISIONAL 1334 1297 P_____________ AL202020 12.8271 -42.8523 TS 37 1003 0 30 50 1011 225 45 14 274
2020254N11343 2020 69 NA NA TEDDY 2020-09-14 18:00:00 TS 12.9000 -43.4000 PROVISIONAL 1297 1260 O_____________ nhc_working_bt AL202020 12.9000 -43.4000 TS 40 1003 0 60 40 20 60 1012 210 50 55 12 90 30 30 12 276
2020254N11343 2020 69 NA NA TEDDY 2020-09-14 21:00:00 TS 12.9273 -43.9802 PROVISIONAL 1253 1228 P_____________ AL202020 12.9274 -43.9652 TS 42 1002 0 80 45 70 1012 210 45 12 90 30 30 11 275
2020254N11343 2020 69 NA NA TEDDY 2020-09-15 00:00:00 TS 13.0000 -44.5000 PROVISIONAL 1228 1210 O_____________ nhc_working_bt AL202020 13.0000 -44.5000 TS 45 1002 0 100 50 80 1012 210 40 55 12 90 30 30 10 284
2020254N11343 2020 69 NA NA TEDDY 2020-09-15 03:00:00 TS 13.1773 -45.0000 PROVISIONAL 1213 1198 P_____________ AL202020 13.1773 -45.0000 TS 47 1001 0 100 50 80 1012 210 30 12 195 120 11 292
2020254N11343 2020 69 NA NA TEDDY 2020-09-15 06:00:00 TS 13.4000 -45.5000 PROVISIONAL 1202 1185 O_____________ nhc_working_bt AL202020 13.4000 -45.5000 TS 50 1001 0 100 50 20 80 20 1012 210 20 60 12 300 210 30 11 292
2020254N11343 2020 69 NA NA TEDDY 2020-09-15 09:00:00 TS 13.5950 -46.0526 PROVISIONAL 1180 1166 P_____________ AL202020 13.6000 -46.0575 TS 52 1000 0 100 55 30 80 25 1011 230 20 12 300 210 30 11 291
2020254N11343 2020 69 NA NA TEDDY 2020-09-15 12:00:00 TS 13.8000 -46.6000 PROVISIONAL 1166 1155 O_____________ nhc_working_bt AL202020 13.8000 -46.6000 TS 55 999 0 100 60 40 80 30 30 1011 250 20 65 12 300 210 30 30 11 293
2020254N11343 2020 69 NA NA TEDDY 2020-09-15 15:00:00 TS 14.0309 -47.1333 PROVISIONAL 1155 1149 P_____________ AL202020 13.9925 -47.0951 TS 55 998 0 120 70 40 120 30 30 1011 250 20 12 300 225 45 45 11 296
2020254N11343 2020 69 NA NA TEDDY 2020-09-15 18:00:00 TS 14.2667 -47.5667 PROVISIONAL 1157 1152 O_____________ nhc_working_bt AL202020 14.2000 -47.5000 TS 55 997 0 140 80 40 160 30 30 1011 250 20 65 12 300 240 60 60 8 303
2020254N11343 2020 69 NA NA TEDDY 2020-09-15 21:00:00 TS 14.4656 -47.8111 PROVISIONAL 1166 1161 P_____________ AL202020 14.4273 -47.7727 TS 60 992 0 140 80 40 155 35 30 1010 215 20 6 316
2020254N11343 2020 69 NA NA TEDDY 2020-09-16 00:00:00 TS 14.7000 -48.0000 PROVISIONAL 1176 1176 O_____________ nhc_working_bt AL202020 14.7000 -48.0000 HU 65 987 1 140 80 40 150 40 30 30 20 1010 180 20 75 7 321
2020254N11343 2020 69 NA NA TEDDY 2020-09-16 03:00:00 TS 15.0300 -48.2800 PROVISIONAL 1192 1192 P_____________ AL202020 15.0350 -48.2851 HU 72 982 1 140 80 40 150 40 30 30 20 1010 180 20 9 320
2020254N11343 2020 69 NA NA TEDDY 2020-09-16 06:00:00 TS 15.4000 -48.6000 PROVISIONAL 1220 1220 O_____________ nhc_working_bt AL202020 15.4000 -48.6000 HU 80 978 1 140 80 40 150 40 30 20 30 20 11 11 20 1010 180 20 100 12 300 240 120 150 9 319
2020254N11343 2020 69 NA NA TEDDY 2020-09-16 09:00:00 TS 15.7348 -48.9178 PROVISIONAL 1240 1240 P_____________ AL202020 15.7499 -48.9277 HU 82 975 1 155 125 40 150 45 40 20 30 22 18 11 20 1010 180 20 12 285 255 180 210 10 316
2020254N11343 2020 69 NA NA TEDDY 2020-09-16 12:00:00 TS 16.1000 -49.3000 PROVISIONAL 1261 1256 O_____________ nhc_working_bt AL202020 16.1000 -49.3000 HU 85 973 2 170 170 40 150 50 50 20 30 25 25 11 20 1010 180 20 100 12 270 270 240 270 12 314
2020254N11343 2020 69 NA NA TEDDY 2020-09-16 15:00:00 TS 16.5726 -49.8062 PROVISIONAL 1290 1286 P_____________ AL202020 16.4575 -49.7350 HU 85 973 2 180 135 55 160 65 50 25 60 27 25 25 1010 180 20 12 285 285 240 285 13 312
2020254N11343 2020 69 NA NA TEDDY 2020-09-16 18:00:00 TS 17.0000 -50.3333 PROVISIONAL 1313 1310 O_____________ nhc_working_bt AL202020 16.8000 -50.2000 HU 85 973 2 190 100 70 170 80 50 30 90 30 25 30 1010 180 20 105 12 300 300 240 300 11 305
2020254N11343 2020 69 NA NA TEDDY 2020-09-16 21:00:00 TS 17.2223 -50.7655 PROVISIONAL 1318 1298 P_____________ AL202020 17.1074 -50.6502 HU 85 973 2 205 100 75 170 70 50 40 80 30 25 30 1009 195 20 12 315 300 255 300 9 297
2020254N11343 2020 69 NA NA TEDDY 2020-09-17 00:00:00 TS 17.4000 -51.1667 PROVISIONAL 1295 1274 O_____________ nhc_working_bt AL202020 17.4000 -51.1000 HU 85 973 2 221 100 80 170 60 50 50 70 30 25 20 30 1009 210 20 100 12 330 300 270 300 9 299
2020254N11343 2020 69 NA NA TEDDY 2020-09-17 03:00:00 TS 17.6625 -51.5910 PROVISIONAL 1280 1267 P_____________ AL202020 17.6774 -51.5578 HU 85 973 2 221 100 80 170 60 50 50 70 30 25 20 30 1009 210 20 12 330 330 285 300 10 307
2020254N11343 2020 69 NA NA TEDDY 2020-09-17 06:00:00 TS 18.0000 -52.0000 PROVISIONAL 1267 1264 O_____________ nhc_working_bt AL202020 18.0000 -52.0000 HU 85 973 2 221 100 80 170 60 50 50 70 30 25 20 30 1009 210 20 105 12 330 360 300 300 11 317
2020254N11343 2020 69 NA NA TEDDY 2020-09-17 09:00:00 TS 18.4348 -52.3569 PROVISIONAL 1264 1264 P_____________ AL202020 18.4348 -52.4001 HU 90 969 2 221 100 80 170 60 50 50 70 30 25 20 30 1009 205 20 12 330 345 300 315 11 322
2020254N11343 2020 69 NA NA TEDDY 2020-09-17 12:00:00 TS 18.9000 -52.7333 PROVISIONAL 1279 1272 O_____________ nhc_working_bt AL202020 18.9000 -52.8000 HU 95 965 2 221 100 80 170 60 50 50 70 30 25 20 30 1009 200 20 115 12 330 330 300 330 12 316
2020254N11343 2020 69 NA NA TEDDY 2020-09-17 15:00:00 TS 19.3027 -53.2291 PROVISIONAL 1275 1258 P_____________ AL202020 19.3076 -53.2725 HU 105 956 3 210 125 85 175 75 55 50 75 35 32 27 40 1009 200 20 12 330 330 300 345 12 311
2020254N11343 2020 69 NA NA TEDDY 2020-09-17 18:00:00 TS 19.7000 -53.7000 PROVISIONAL 1258 1232 O_____________ nhc_working_bt AL202020 19.7000 -53.7000 HU 115 948 4 200 150 90 180 90 60 50 80 40 40 35 50 1009 200 20 135 12 330 330 300 360 11 319
2020254N11343 2020 69 NA NA TEDDY 2020-09-17 21:00:00 TS 20.1455 -53.9937 PROVISIONAL 1232 1216 P_____________ AL202020 20.1071 -53.9505 HU 117 946 4 200 150 90 180 90 60 50 80 40 40 35 50 1009 200 20 12 330 330 300 360 10 328
2020254N11343 2020 69 NA NA TEDDY 2020-09-18 00:00:00 TS 20.5667 -54.2667 PROVISIONAL 1209 1182 O_____________ nhc_working_bt AL202020 20.5000 -54.2000 HU 120 945 4 200 150 90 180 90 60 50 80 40 40 35 50 1010 200 20 145 12 330 330 300 360 10 320
2020254N11343 2020 69 NA NA TEDDY 2020-09-18 03:00:00 TS 20.9109 -54.6733 PROVISIONAL 1174 1141 P_____________ AL202020 20.8727 -54.6348 HU 117 946 4 200 150 105 165 90 60 60 85 45 40 37 50 1010 200 22 12 330 345 300 330 10 309
2020254N11343 2020 69 NA NA TEDDY 2020-09-18 06:00:00 TS 21.2000 -55.1000 PROVISIONAL 1141 1117 O_____________ nhc_working_bt AL202020 21.2000 -55.1000 HU 115 947 4 200 150 120 150 90 60 70 90 50 40 40 50 1010 200 25 140 12 330 360 300 300 9 305
2020254N11343 2020 69 NA NA TEDDY 2020-09-18 09:00:00 TS 21.4298 -55.4555 PROVISIONAL 1107 1087 P_____________ AL202020 21.4348 -55.4655 HU 115 947 4 200 150 120 150 90 60 70 90 50 40 40 50 1010 200 25 12 330 360 300 300 8 307
2020254N11343 2020 69 NA NA TEDDY 2020-09-18 12:00:00 TS 21.7000 -55.8000 PROVISIONAL 1087 1063 O_____________ nhc_working_bt AL202020 21.7000 -55.8000 HU 115 947 4 200 150 120 150 90 60 70 90 50 40 40 50 1010 200 25 140 12 330 360 300 300 10 315
2020254N11343 2020 69 NA NA TEDDY 2020-09-18 15:00:00 TS 22.1201 -56.2006 PROVISIONAL 1063 1048 P_____________ AL202020 22.1200 -56.1574 HU 112 949 3 200 150 120 150 90 60 70 90 50 40 40 50 1010 200 25 12 375 330 300 360 12 322
2020254N11343 2020 69 NA NA TEDDY 2020-09-18 18:00:00 TS 22.6000 -56.5667 PROVISIONAL 1047 1047 O_____________ nhc_working_bt AL202020 22.6000 -56.5000 HU 110 952 3 200 150 120 150 90 60 70 90 50 40 40 50 1010 200 25 135 12 420 300 300 420 11 329
2020254N11343 2020 69 NA NA TEDDY 2020-09-18 21:00:00 TS 23.0497 -56.8006 PROVISIONAL 1049 1049 P_____________ AL202020 23.0499 -56.8004 HU 112 951 3 200 150 120 150 90 60 70 90 50 40 40 50 1009 200 25 12 420 285 300 420 10 335
2020254N11343 2020 69 NA NA TEDDY 2020-09-19 00:00:00 TS 23.5000 -57.0333 PROVISIONAL 1059 1048 O_____________ nhc_working_bt AL202020 23.5000 -57.1000 HU 115 950 4 200 150 120 150 90 60 70 90 50 40 40 50 1008 200 25 140 12 420 270 300 420 10 328
2020254N11343 2020 69 NA NA TEDDY 2020-09-19 03:00:00 TS 23.9350 -57.3919 PROVISIONAL 1048 1042 P_____________ AL202020 23.9349 -57.4354 HU 115 950 4 200 175 130 150 90 60 70 90 50 40 40 50 1008 200 25 12 420 270 300 420 11 322
2020254N11343 2020 69 NA NA TEDDY 2020-09-19 06:00:00 TS 24.4000 -57.8000 PROVISIONAL 1049 1047 O_____________ nhc_working_bt AL202020 24.4000 -57.8000 HU 115 950 4 200 200 140 150 90 60 70 90 50 40 40 50 1008 200 25 20 140 12 420 270 300 420 12 325
2020254N11343 2020 69 NA NA TEDDY 2020-09-19 09:00:00 TS 24.9571 -58.1678 PROVISIONAL 1061 1061 P_____________ AL202020 24.9572 -58.1627 HU 110 954 3 200 200 140 150 110 75 75 90 50 40 40 50 1008 200 25 12 435 285 345 435 13 327
2020254N11343 2020 69 NA NA TEDDY 2020-09-19 12:00:00 TS 25.5000 -58.6000 PROVISIONAL 1072 1065 O_____________ nhc_working_bt AL202020 25.5000 -58.6000 HU 105 958 3 200 200 140 150 130 90 80 90 50 40 40 50 1008 200 25 130 12 450 300 390 450 13 317
2020254N11343 2020 69 NA NA TEDDY 2020-09-19 15:00:00 TS 25.9377 -59.1850 PROVISIONAL 1065 1061 P_____________ AL202020 25.9377 -59.1850 HU 105 958 3 210 200 140 150 130 90 80 90 50 40 40 50 1008 200 25 12 465 300 390 465 13 307
2020254N11343 2020 69 NA NA TEDDY 2020-09-19 18:00:00 TS 26.3000 -59.8000 PROVISIONAL 1065 1059 O_____________ nhc_working_bt AL202020 26.3000 -59.8000 HU 105 958 3 221 200 140 150 130 90 80 90 50 40 40 50 1008 200 25 130 12 480 300 390 480 12 303
2020254N11343 2020 69 NA NA TEDDY 2020-09-19 21:00:00 TS 26.6097 -60.3231 PROVISIONAL 1065 1060 P_____________ AL202020 26.6146 -60.3081 HU 105 957 3 221 200 140 150 130 90 80 90 50 40 40 50 1008 200 27 12 465 285 375 465 11 304
2020254N11343 2020 69 NA NA TEDDY 2020-09-20 00:00:00 TS 26.9000 -60.8000 PROVISIONAL 1069 1065 O_____________ nhc_working_bt AL202020 26.9000 -60.8000 HU 105 956 3 221 200 140 150 130 90 80 90 50 40 40 50 1008 200 30 130 12 450 270 360 450 10 307
2020254N11343 2020 69 NA NA TEDDY 2020-09-20 03:00:00 TS 27.2456 -61.2576 PROVISIONAL 1077 1077 P_____________ AL202020 27.2077 -61.3724 HU 102 957 3 200 190 160 165 125 105 80 95 60 55 40 55 1008 210 30 12 465 285 375 465 10 310
2020254N11343 2020 69 NA NA TEDDY 2020-09-20 06:00:00 TS 27.5667 -61.7000 PROVISIONAL 1102 1095 O_____________ nhc_working_bt AL202020 27.5000 -61.9000 HU 100 958 3 180 180 180 180 120 120 80 100 70 70 40 60 1008 220 30 120 12 480 300 390 480 10 304
2020254N11343 2020 69 NA NA TEDDY 2020-09-20 09:00:00 TS 27.7908 -62.1654 PROVISIONAL 1106 1103 P_____________ AL202020 27.7571 -62.2805 HU 95 961 2 180 180 180 180 120 110 80 100 70 65 35 60 1009 220 30 12 495 315 405 465 9 299
2020254N11343 2020 69 NA NA TEDDY 2020-09-20 12:00:00 TS 28.0000 -62.6000 PROVISIONAL 1115 1113 O_____________ nhc_working_bt AL202020 28.0000 -62.6000 HU 90 964 2 180 180 180 180 120 100 80 100 70 60 30 60 1010 220 30 110 12 510 330 420 450 9 304
2020254N11343 2020 69 NA NA TEDDY 2020-09-20 15:00:00 TS 28.2833 -62.9874 PROVISIONAL 1137 1135 P_____________ AL202020 28.2501 -62.9725 HU 90 964 2 190 190 165 175 120 105 75 100 70 60 30 60 1010 220 30 12 510 330 390 450 8 313
2020254N11343 2020 69 NA NA TEDDY 2020-09-20 18:00:00 TS 28.5667 -63.3000 PROVISIONAL 1163 1161 O_____________ nhc_working_bt AL202020 28.5000 -63.3000 HU 90 964 2 200 200 150 170 120 110 70 100 70 60 30 60 1010 220 30 110 12 510 330 360 450 7 314
2020254N11343 2020 69 NA NA TEDDY 2020-09-20 21:00:00 TS 28.7733 -63.5725 PROVISIONAL 1179 1179 P_____________ AL202020 28.7349 -63.5674 HU 90 963 2 200 200 150 170 120 110 70 100 70 60 30 60 1010 220 30 6 321
2020254N11343 2020 69 NA NA TEDDY 2020-09-21 00:00:00 TS 29.0000 -63.7000 PROVISIONAL 1200 1200 O_____________ nhc_working_bt AL202020 29.0000 -63.7000 HU 90 963 2 200 200 150 170 120 110 70 100 70 60 30 60 1010 220 30 110 6 354
2020254N11343 2020 69 NA NA TEDDY 2020-09-21 03:00:00 TS 29.3224 -63.6318 PROVISIONAL 1234 1234 P_____________ AL202020 29.3274 -63.6750 HU 87 962 2 200 200 150 160 115 110 65 90 65 60 30 55 1010 220 30 7 18
2020254N11343 2020 69 NA NA TEDDY 2020-09-21 06:00:00 TS 29.7000 -63.4333 PROVISIONAL 1282 1282 O_____________ nhc_working_bt AL202020 29.7000 -63.5000 HU 85 962 2 200 200 150 150 110 110 60 80 60 60 30 50 1010 220 30 105 12 510 330 360 450 8 25
2020254N11343 2020 69 NA NA TEDDY 2020-09-21 09:00:00 TS 30.0248 -63.2512 PROVISIONAL 1306 1301 P_____________ AL202020 30.0248 -63.2661 HU 82 961 1 200 200 150 135 110 110 50 75 65 65 50 1009 260 45 12 525 330 375 465 9 27
2020254N11343 2020 69 NA NA TEDDY 2020-09-21 12:00:00 TS 30.5000 -62.9667 PROVISIONAL 1301 1298 O_____________ nhc_working_bt AL202020 30.5000 -62.9000 HU 80 960 1 200 200 150 120 110 110 40 70 70 70 50 1008 300 60 100 12 540 330 390 480 14 28
2020254N11343 2020 69 NA NA TEDDY 2020-09-21 15:00:00 TS 31.2306 -62.4942 PROVISIONAL 1306 1277 P_____________ AL202020 31.2308 -62.3367 HU 80 959 1 220 220 165 135 115 115 50 75 70 70 50 1008 300 60 12 540 330 390 480 19 26
2020254N11343 2020 69 NA NA TEDDY 2020-09-21 18:00:00 TS 32.2000 -62.0000 PROVISIONAL 1272 1190 O_____________ nhc_working_bt AL202020 32.2000 -61.8000 HU 80 958 1 240 240 180 150 120 120 60 80 70 70 20 50 1008 300 60 100 12 540 330 390 480 22 21
2020254N11343 2020 69 NA NA TEDDY 2020-09-21 21:00:00 TS 33.3025 -61.5784 PROVISIONAL 1179 1056 P_____________ AL202020 33.3022 -61.4671 HU 82 957 1 240 240 180 150 120 120 60 80 80 75 20 50 1008 300 60 12 570 330 405 510 25 12
2020254N11343 2020 69 NA NA TEDDY 2020-09-22 00:00:00 TS 34.6000 -61.4000 PROVISIONAL 1045 881 O_____________ nhc_working_bt AL202020 34.6000 -61.4000 HU 85 956 2 240 240 180 150 120 120 60 80 90 80 20 50 1008 300 60 105 12 600 330 420 540 29 0
2020254N11343 2020 69 NA NA TEDDY 2020-09-22 03:00:00 TS 36.1620 -61.5966 PROVISIONAL 871 719 P_____________ AL202020 36.1670 -61.6122 HU 87 953 2 270 270 180 165 135 135 60 80 90 85 20 50 1008 300 60 12 600 330 420 540 31 349
2020254N11343 2020 69 NA NA TEDDY 2020-09-22 06:00:00 TS 37.6000 -62.1000 PROVISIONAL 709 594 O_____________ nhc_working_bt AL202020 37.6000 -62.1000 HU 90 950 2 300 300 180 180 150 150 60 80 90 90 20 50 1008 300 60 105 12 600 330 420 540 26 338
2020254N11343 2020 69 NA NA TEDDY 2020-09-22 09:00:00 TS 38.5243 -62.8043 PROVISIONAL 594 511 P_____________ AL202020 38.4859 -62.7998 HU 90 950 2 330 315 225 240 180 150 105 145 90 90 50 80 1008 330 65 12 660 405 540 480 19 325
2020254N11343 2020 69 NA NA TEDDY 2020-09-22 12:00:00 TS 39.1667 -63.5000 PROVISIONAL 501 438 O_____________ nhc_working_bt AL202020 39.1000 -63.5000 HU 90 950 2 360 331 270 300 210 150 150 210 90 90 80 110 1008 360 70 110 12 720 480 660 420 15 324
2020254N11343 2020 69 NA NA TEDDY 2020-09-22 15:00:00 TS 39.7327 -63.9184 PROVISIONAL 438 369 P_____________ AL202020 39.6995 -63.9562 HU 85 951 2 415 360 270 290 225 135 140 210 85 85 80 110 1008 360 70 12 690 630 420 12 337
2020254N11343 2020 69 NA NA TEDDY 2020-09-22 18:00:00 TS 40.3000 -64.1333 PROVISIONAL 369 289 O_____________ nhc_working_bt AL202020 40.3000 -64.2000 HU 80 953 1 470 390 270 280 240 120 130 210 80 80 80 110 1008 360 70 100 12 660 780 420 14 348
2020254N11343 2020 69 NA NA TEDDY 2020-09-22 21:00:00 TS 41.0529 -64.2802 PROVISIONAL 279 209 P_____________ AL202020 41.0345 -64.3192 HU 75 954 1 470 390 270 280 240 120 130 210 80 80 80 110 1008 360 70 12 660 780 390 16 358
2020254N11343 2020 69 NA NA TEDDY 2020-09-23 00:00:00 TS 41.8667 -64.2000 PROVISIONAL 199 151 O_____________ nhc_working_bt AL202020 41.8000 -64.2000 HU 70 955 1 470 390 270 280 240 120 130 210 80 80 80 110 1008 360 70 90 12 660 780 360 16 11
2020254N11343 2020 69 NA NA TEDDY 2020-09-23 03:00:00 TS 42.6120 -63.8552 PROVISIONAL 151 123 P_____________ AL202020 42.4776 -63.8395 HU 65 956 1 470 390 260 265 240 120 125 205 40 40 40 55 1008 360 70 12 660 780 360 17 24
2020254N11343 2020 69 NA NA TEDDY 2020-09-23 06:00:00 ET 43.3800 -63.3000 PROVISIONAL 113 56 O_____________ nhc_working_bt AL202020 43.2000 -63.3000 EX 60 957 -4 470 390 250 250 240 120 120 200 1008 360 70 75 12 660 780 360 18 28
2020254N11343 2020 69 NA NA TEDDY 2020-09-23 09:00:00 ET 44.2176 -62.6904 PROVISIONAL 56 0 P_____________ AL202020 44.0245 -62.7562 EX 57 960 -4 325 285 185 215 155 100 1008 390 70 12 630 750 300 20 28
2020254N11343 2020 69 NA NA TEDDY 2020-09-23 12:00:00 ET 45.1247 -62.0287 PROVISIONAL 0 0 O_____________ nhc_working_bt AL202020 45.0000 -62.1000 EX 55 964 -4 180 180 120 180 70 80 1008 420 70 65 12 600 720 240 22 26
2020254N11343 2020 69 NA NA TEDDY 2020-09-23 15:00:00 ET 46.1619 -61.3231 PROVISIONAL 0 0 P_____________ AL202020 46.1619 -61.3231 EX 52 969 -4 150 180 135 180 70 1008 450 65 25 26
2020254N11343 2020 69 NA NA TEDDY 2020-09-23 18:00:00 ET 47.4000 -60.4000 PROVISIONAL 56 24 O_____________ nhc_working_bt AL202020 47.4000 -60.4000 EX 50 974 -4 120 180 150 180 60 1008 480 60 60 28 29
2020254N11343 2020 69 NA NA TEDDY 2020-09-23 21:00:00 ET 48.5773 -59.3471 PROVISIONAL 14 13 P_____________ AL202020 48.5773 -59.3471 EX 47 974 -4 120 180 150 180 1008 480 60 27 32
2020254N11343 2020 69 NA NA TEDDY 2020-09-24 00:00:00 ET 49.7000 -58.2000 PROVISIONAL 14 O_____________ nhc_working_bt AL202020 49.7000 -58.2000 EX 45 975 -4 120 180 150 180 1008 480 60 55 12 240 640 27 33

IBTrACS Databaseについて

本データベースは、米国NOAAが公開する1842年以降の世界の熱帯低気圧のベストトラックデータアーカイブInternational Best Track Archive for Climate Stewardship (IBTrACS)を、ウェブで閲覧しやすい形式に変換したものです。

最終更新日:2021-10-21